Berge Summit — C6TR5 — position and weather

sailwx.info

Track history (hours):
 
Tides and Currents Weather Stations Pressure Air Temp Water Temp Dewpoint Dewpoint Depression Visibility Wind Speed Wind Dir Waves Ship Positions

Berge Summit

Last reported at 2017-Dec-13 22:21 UTC. Time now 2017-Dec-15 12:05 UTC.
Position N 18°15' W 064°59'.

Length 230 m; draft 7.8 m.

Type: Tanker. MMSI: 311754000.

Date/timePositionNaut miles runAvg speedWind from/ knotsBaromVisibWave heightAir tempDewpointWater temp
2017-Dec-13 22:21N 18°15' W 064°59'0 0.1
2017-Dec-13 22:00N 18°15' W 064°59'0 0.0
2017-Dec-13 21:24N 18°15' W 064°59'0 0.1
2017-Dec-13 21:00N 18°15' W 064°59'0 0.1
2017-Dec-13 20:30N 18°15' W 064°59'0 0.1
2017-Dec-13 19:51N 18°15' W 064°59'0 0.0
2017-Dec-13 19:09N 18°15' W 064°59'0 0.0
2017-Dec-13 19:00N 18°15' W 064°59'0 0.1
2017-Dec-13 17:57N 18°15' W 064°59'0 0.1
2017-Dec-13 17:21N 18°15' W 064°59'0 0.1
2017-Dec-13 17:00N 18°15' W 064°59'0 0.1
2017-Dec-13 16:30N 18°15' W 064°59'0 0.0
2017-Dec-13 14:06N 18°15' W 064°59'0 0.0
2017-Dec-13 12:27N 18°15' W 064°59'0 0.0
2017-Dec-13 11:27N 18°15' W 064°59'0 0.1
2017-Dec-13 11:00N 18°15' W 064°59'0 0.0
2017-Dec-13 10:30N 18°15' W 064°59'0 0.1
2017-Dec-13 10:00N 18°15' W 064°59'0 0.1
2017-Dec-13 09:30N 18°15' W 064°59'0 0.0
2017-Dec-13 08:39N 18°15' W 064°59'0 0.0
2017-Dec-13 08:27N 18°15' W 064°59'0 0.0
2017-Dec-13 08:00N 18°15' W 064°59'0 0.0
2017-Dec-13 07:30N 18°15' W 064°59'0 0.1
2017-Dec-13 07:00N 18°15' W 064°59'0 0.0
2017-Dec-13 06:18N 18°15' W 064°59'0 0.0
2017-Dec-13 06:00N 18°15' W 064°59'0 0.0
2017-Dec-13 05:30N 18°15' W 064°59'0 0.0
2017-Dec-13 04:48N 18°15' W 064°59'0 0.1
2017-Dec-13 04:21N 18°15' W 064°59'0 0.1
2017-Dec-13 04:00N 18°15' W 064°59'0 0.0
2017-Dec-13 03:27N 18°15' W 064°59'0 0.0
2017-Dec-13 03:00N 18°15' W 064°59'0 0.0
2017-Dec-13 01:39N 18°15' W 064°59'0 0.0
2017-Dec-13 01:09N 18°15' W 064°59'0 0.0
2017-Dec-13 00:57N 18°15' W 064°59'0 0.0
2017-Dec-12 23:27N 18°15' W 064°59'0 0.0
2017-Dec-12 22:33N 18°15' W 064°59'0 0.1
2017-Dec-12 22:27N 18°15' W 064°59'0 0.0
2017-Dec-12 21:56N 18°15' W 064°59'0 0.0
2017-Dec-12 21:30N 18°15' W 064°59'0 0.0
2017-Dec-12 21:00N 18°15' W 064°59'0 0.0
2017-Dec-12 20:31N 18°15' W 064°59'0 0.1
2017-Dec-12 20:01N 18°15' W 064°59'0 0.0
2017-Dec-12 19:30N 18°15' W 064°59'0 0.0
2017-Dec-12 18:55N 18°15' W 064°59'0 0.1
2017-Dec-12 18:28N 18°15' W 064°59'0 0.0
2017-Dec-12 16:47N 18°15' W 064°59'0 0.2
2017-Dec-12 16:30N 18°15' W 064°59'0 0.2
2017-Dec-12 15:58N 18°15' W 064°59'1 1.3
2017-Dec-12 15:29N 18°15' W 064°59'1 2.5
2017-Dec-12 14:57N 18°14' W 065°01'2 1.1
2017-Dec-12 12:49N 18°12' W 065°00'0 0.7
2017-Dec-12 12:18N 18°12' W 064°60'0 0.7
2017-Dec-12 11:59N 18°12' W 064°60'0 0.8
2017-Dec-12 11:30N 18°12' W 064°59'0 0.9
2017-Dec-12 11:00N 18°13' W 064°59'1 2.9
2017-Dec-12 10:30N 18°14' W 065°00'2 4.5
2017-Dec-12 10:00N 18°15' W 065°02'2 4.7
2017-Dec-12 09:30N 18°15' W 065°05'2 4.7
2017-Dec-12 09:01N 18°15' W 065°07'1 2.7
2017-Dec-12 08:31N 18°16' W 065°09'0 0.3
2017-Dec-12 08:01N 18°16' W 065°09'0 0.3
2017-Dec-12 07:30N 18°15' W 065°08'0 0.5
2017-Dec-12 07:00N 18°15' W 065°08'0 0.6
2017-Dec-12 06:30N 18°15' W 065°08'0 0.7
2017-Dec-12 06:00N 18°15' W 065°08'0 0.8
2017-Dec-12 05:30N 18°15' W 065°07'0 1.0
2017-Dec-12 05:00N 18°14' W 065°07'1 1.0
2017-Dec-12 04:30N 18°14' W 065°07'1 1.1
2017-Dec-12 04:00N 18°13' W 065°06'0 1.0
2017-Dec-12 03:30N 18°13' W 065°06'1 1.0
2017-Dec-12 03:00N 18°13' W 065°05'1 1.0
2017-Dec-12 02:30N 18°13' W 065°05'1 1.1
2017-Dec-12 02:00N 18°12' W 065°04'1 1.1
2017-Dec-12 01:29N 18°12' W 065°04'1 1.1
2017-Dec-12 01:00N 18°12' W 065°03'1 1.1
2017-Dec-12 00:29N 18°12' W 065°03'0 1.0
2017-Dec-12 00:01N 18°12' W 065°02'1 1.0
2017-Dec-11 23:30N 18°12' W 065°02'1 1.0
2017-Dec-11 23:00N 18°12' W 065°01'0 0.9
2017-Dec-11 22:31N 18°12' W 065°01'0 0.9
2017-Dec-11 22:00N 18°13' W 065°00'0 0.9
2017-Dec-11 21:30N 18°13' W 064°60'0 0.8
2017-Dec-11 20:59N 18°13' W 064°59'2 0.5
2017-Dec-11 17:06N 18°13' W 064°57'0 3.4
2017-Dec-11 17:00N 18°13' W 064°57'1 2.4
2017-Dec-11 16:30N 18°14' W 064°58'0 0.9
2017-Dec-11 16:00N 18°14' W 064°58'2 2.5
2017-Dec-11 15:13N 18°14' W 064°60'1 4.0
2017-Dec-11 14:50N 18°14' W 065°01'1 3.6
2017-Dec-11 14:30N 18°15' W 065°02'1 1.6
2017-Dec-11 14:00N 18°14' W 065°02'4 2.7
2017-Dec-11 12:25N 18°11' W 065°05'1 1.3
2017-Dec-11 11:58N 18°11' W 065°04'1 1.2
2017-Dec-11 11:30N 18°11' W 065°04'1 1.2
2017-Dec-11 11:00N 18°11' W 065°03'1 1.1
2017-Dec-11 10:30N 18°11' W 065°03'1 1.1
2017-Dec-11 10:00N 18°11' W 065°02'1 1.1
2017-Dec-11 09:30N 18°11' W 065°01'1 1.1
2017-Dec-11 09:00N 18°12' W 065°01'1 1.1
2017-Dec-11 08:30N 18°12' W 065°00'1 1.1
2017-Dec-11 08:00N 18°12' W 064°60'0 0.8
2017-Dec-11 07:30N 18°12' W 064°59'0 0.6
2017-Dec-11 06:59N 18°12' W 064°59'2 3.8
2017-Dec-11 06:31N 18°12' W 065°01'2 4.4
2017-Dec-11 06:00N 18°12' W 065°04'2 3.9
2017-Dec-11 05:30N 18°12' W 065°06'2 3.5
2017-Dec-11 04:57N 18°12' W 065°08'0 0.8
2017-Dec-11 04:22N 18°12' W 065°07'0 0.8
2017-Dec-11 03:53N 18°12' W 065°07'0 0.9
2017-Dec-11 03:30N 18°12' W 065°06'1 0.9
2017-Dec-11 02:55N 18°12' W 065°06'0 1.0
2017-Dec-11 02:28N 18°12' W 065°05'1 1.1
2017-Dec-11 01:57N 18°12' W 065°05'0 1.0
2017-Dec-11 01:29N 18°12' W 065°04'1 1.1
2017-Dec-11 00:57N 18°12' W 065°04'1 1.1
2017-Dec-11 00:28N 18°13' W 065°03'1 1.1
2017-Dec-10 23:57N 18°13' W 065°03'0 1.0
2017-Dec-10 23:30N 18°13' W 065°02'1 1.1
2017-Dec-10 22:57N 18°13' W 065°02'1 1.1
2017-Dec-10 22:29N 18°13' W 065°01'1 1.1
2017-Dec-10 22:01N 18°14' W 065°01'1 1.3
2017-Dec-10 21:30N 18°14' W 065°00'1 1.1
2017-Dec-10 20:59N 18°14' W 064°60'2 0.3
2017-Dec-10 14:49N 18°15' W 065°02'1 1.2
2017-Dec-10 14:24N 18°15' W 065°01'2 1.6
2017-Dec-10 13:03N 18°16' W 064°59'0 1.2
2017-Dec-10 12:59N 18°16' W 064°59'0 0.9
2017-Dec-10 12:30N 18°16' W 064°60'1 1.2
2017-Dec-10 11:59N 18°15' W 064°59'2 3.2
2017-Dec-10 11:15N 18°14' W 065°01'1 3.5
2017-Dec-10 11:00N 18°13' W 065°02'2 3.6
2017-Dec-10 10:30N 18°12' W 065°03'2 4.2
2017-Dec-10 10:00N 18°10' W 065°04'3 4.4
2017-Dec-10 09:23N 18°08' W 065°06'2 0.9
2017-Dec-10 07:20N 18°10' W 065°05'0 1.0
2017-Dec-10 06:56N 18°10' W 065°05'0 0.9
2017-Dec-10 06:27N 18°10' W 065°04'0 0.9
2017-Dec-10 05:59N 18°10' W 065°04'1 1.0
2017-Dec-10 05:19N 18°10' W 065°03'0 1.2
2017-Dec-10 05:00N 18°11' W 065°03'1 1.6
2017-Dec-10 04:29N 18°11' W 065°02'1 1.5
2017-Dec-10 04:00N 18°11' W 065°01'1 1.5
2017-Dec-10 03:28N 18°11' W 065°01'1 1.4
2017-Dec-10 02:51N 18°11' W 064°60'0 1.3
2017-Dec-10 02:29N 18°12' W 064°59'1 1.3
2017-Dec-10 02:00N 18°12' W 064°59'1 1.2
2017-Dec-10 01:30N 18°12' W 064°58'1 1.2
2017-Dec-10 01:00N 18°12' W 064°57'1 1.2
2017-Dec-10 00:30N 18°12' W 064°57'1 1.3
2017-Dec-10 00:00N 18°12' W 064°56'1 1.2
2017-Dec-09 23:30N 18°13' W 064°56'1 1.7
2017-Dec-09 23:00N 18°13' W 064°56'2 3.5
2017-Dec-09 22:28N 18°13' W 064°58'2 3.6
2017-Dec-09 22:01N 18°14' W 064°60'1 1.7
2017-Dec-09 21:24N 18°15' W 065°00'2 0.4
2017-Dec-09 15:43N 18°14' W 064°58'0 1.6
2017-Dec-09 15:30N 18°14' W 064°58'1 1.4
2017-Dec-09 15:00N 18°14' W 064°57'1 1.6
2017-Dec-09 14:30N 18°15' W 064°57'4 8.5
2017-Dec-09 14:00N 18°16' W 065°02'1 1.4
2017-Dec-09 13:31N 18°17' W 065°02'1 2.6
2017-Dec-09 12:59N 18°15' W 065°01'1 1.8
2017-Dec-09 12:31N 18°15' W 065°01'1 1.9
2017-Dec-09 11:57N 18°14' W 065°00'3 5.9
2017-Dec-09 11:30N 18°11' W 065°01'5 8.6
2017-Dec-09 10:58N 18°07' W 065°02'8 0.7
2017-Dec-08 22:13N 18°12' W 064°55'2 7.8
2017-Dec-08 21:54N 18°14' W 064°56'2 6.1
2017-Dec-08 21:31N 18°16' W 064°58'1 2.3
2017-Dec-08 21:00N 18°16' W 064°59'3 5.6
2017-Dec-08 20:30N 18°13' W 064°60'3 5.2
2017-Dec-08 19:58N 18°15' W 065°02'1 1.5
2017-Dec-08 19:30N 18°14' W 065°02'1 1.7
2017-Dec-08 19:00N 18°14' W 065°01'1 1.6
2017-Dec-08 18:31N 18°13' W 065°00'1 1.6
2017-Dec-08 18:00N 18°13' W 064°59'1 1.7
2017-Dec-08 17:31N 18°13' W 064°59'1 1.8
2017-Dec-08 17:00N 18°12' W 064°58'1 1.8
2017-Dec-08 16:30N 18°12' W 064°57'1 2.0
2017-Dec-08 15:58N 18°12' W 064°58'4 8.7
2017-Dec-08 15:30N 18°15' W 065°01'2 4.2
2017-Dec-08 15:00N 18°16' W 065°03'1 2.1
2017-Dec-08 14:31N 18°16' W 065°02'1 1.8
2017-Dec-08 14:01N 18°15' W 065°01'86 4.0
2017-Dec-07 16:13N 17°49' W 063°35'312.6
2017-Dec-07 15:58N 17°48' W 063°32'612.8
2017-Dec-07 15:29N 17°46' W 063°26'612.7
2017-Dec-07 14:59N 17°45' W 063°19'712.4
2017-Dec-07 14:27N 17°42' W 063°13'611.6
2017-Dec-07 13:54N 17°38' W 063°08'512.0
2017-Dec-07 13:30N 17°33' W 063°05'  
2017-Dec-04 04:59N 18°15' W 064°59'0 0.1
2017-Dec-04 04:14N 18°15' W 064°59'0 0.0
2017-Dec-04 03:53N 18°15' W 064°59'0 0.0
2017-Dec-04 03:26N 18°15' W 064°59'0 0.0
2017-Dec-04 02:56N 18°15' W 064°59'0 0.1
2017-Dec-04 02:29N 18°15' W 064°59'0 0.1
2017-Dec-04 01:59N 18°15' W 064°59'0 0.2
2017-Dec-04 01:26N 18°15' W 064°59'0 0.0
2017-Dec-04 00:17N 18°15' W 064°59'0 0.1
2017-Dec-03 23:56N 18°15' W 064°59'  
Track history (hours):
 
Tides and Currents Weather Stations Pressure Air Temp Water Temp Dewpoint Dewpoint Depression Visibility Wind Speed Wind Dir Waves Ship Positions

Berge Summit

Last reported at 2017-Dec-13 22:21 UTC. Time now 2017-Dec-15 12:05 UTC.
Position N 18°15' W 064°59'.

Length 230 m; draft 7.8 m.

Type: Tanker. MMSI: 311754000.

Date/timePositionNaut miles runAvg speedWind from/ knotsBaromVisibWave heightAir tempDewpointWater temp
2017-Dec-13 22:21N 18°15' W 064°59'0 0.1
2017-Dec-13 22:00N 18°15' W 064°59'0 0.0
2017-Dec-13 21:24N 18°15' W 064°59'0 0.1
2017-Dec-13 21:00N 18°15' W 064°59'0 0.1
2017-Dec-13 20:30N 18°15' W 064°59'0 0.1
2017-Dec-13 19:51N 18°15' W 064°59'0 0.0
2017-Dec-13 19:09N 18°15' W 064°59'0 0.0
2017-Dec-13 19:00N 18°15' W 064°59'0 0.1
2017-Dec-13 17:57N 18°15' W 064°59'0 0.1
2017-Dec-13 17:21N 18°15' W 064°59'0 0.1
2017-Dec-13 17:00N 18°15' W 064°59'0 0.1
2017-Dec-13 16:30N 18°15' W 064°59'0 0.0
2017-Dec-13 14:06N 18°15' W 064°59'0 0.0
2017-Dec-13 12:27N 18°15' W 064°59'0 0.0
2017-Dec-13 11:27N 18°15' W 064°59'0 0.1
2017-Dec-13 11:00N 18°15' W 064°59'0 0.0
2017-Dec-13 10:30N 18°15' W 064°59'0 0.1
2017-Dec-13 10:00N 18°15' W 064°59'0 0.1
2017-Dec-13 09:30N 18°15' W 064°59'0 0.0
2017-Dec-13 08:39N 18°15' W 064°59'0 0.0
2017-Dec-13 08:27N 18°15' W 064°59'0 0.0
2017-Dec-13 08:00N 18°15' W 064°59'0 0.0
2017-Dec-13 07:30N 18°15' W 064°59'0 0.1
2017-Dec-13 07:00N 18°15' W 064°59'0 0.0
2017-Dec-13 06:18N 18°15' W 064°59'0 0.0
2017-Dec-13 06:00N 18°15' W 064°59'0 0.0
2017-Dec-13 05:30N 18°15' W 064°59'0 0.0
2017-Dec-13 04:48N 18°15' W 064°59'0 0.1
2017-Dec-13 04:21N 18°15' W 064°59'0 0.1
2017-Dec-13 04:00N 18°15' W 064°59'0 0.0
2017-Dec-13 03:27N 18°15' W 064°59'0 0.0
2017-Dec-13 03:00N 18°15' W 064°59'0 0.0
2017-Dec-13 01:39N 18°15' W 064°59'0 0.0
2017-Dec-13 01:09N 18°15' W 064°59'0 0.0
2017-Dec-13 00:57N 18°15' W 064°59'0 0.0
2017-Dec-12 23:27N 18°15' W 064°59'0 0.0
2017-Dec-12 22:33N 18°15' W 064°59'0 0.1
2017-Dec-12 22:27N 18°15' W 064°59'0 0.0
2017-Dec-12 21:56N 18°15' W 064°59'0 0.0
2017-Dec-12 21:30N 18°15' W 064°59'0 0.0
2017-Dec-12 21:00N 18°15' W 064°59'0 0.0
2017-Dec-12 20:31N 18°15' W 064°59'0 0.1
2017-Dec-12 20:01N 18°15' W 064°59'0 0.0
2017-Dec-12 19:30N 18°15' W 064°59'0 0.0
2017-Dec-12 18:55N 18°15' W 064°59'0 0.1
2017-Dec-12 18:28N 18°15' W 064°59'0 0.0
2017-Dec-12 16:47N 18°15' W 064°59'0 0.2
2017-Dec-12 16:30N 18°15' W 064°59'0 0.2
2017-Dec-12 15:58N 18°15' W 064°59'1 1.3
2017-Dec-12 15:29N 18°15' W 064°59'1 2.5
2017-Dec-12 14:57N 18°14' W 065°01'2 1.1
2017-Dec-12 12:49N 18°12' W 065°00'0 0.7
2017-Dec-12 12:18N 18°12' W 064°60'0 0.7
2017-Dec-12 11:59N 18°12' W 064°60'0 0.8
2017-Dec-12 11:30N 18°12' W 064°59'0 0.9
2017-Dec-12 11:00N 18°13' W 064°59'1 2.9
2017-Dec-12 10:30N 18°14' W 065°00'2 4.5
2017-Dec-12 10:00N 18°15' W 065°02'2 4.7
2017-Dec-12 09:30N 18°15' W 065°05'2 4.7
2017-Dec-12 09:01N 18°15' W 065°07'1 2.7
2017-Dec-12 08:31N 18°16' W 065°09'0 0.3
2017-Dec-12 08:01N 18°16' W 065°09'0 0.3
2017-Dec-12 07:30N 18°15' W 065°08'0 0.5
2017-Dec-12 07:00N 18°15' W 065°08'0 0.6
2017-Dec-12 06:30N 18°15' W 065°08'0 0.7
2017-Dec-12 06:00N 18°15' W 065°08'0 0.8
2017-Dec-12 05:30N 18°15' W 065°07'0 1.0
2017-Dec-12 05:00N 18°14' W 065°07'1 1.0
2017-Dec-12 04:30N 18°14' W 065°07'1 1.1
2017-Dec-12 04:00N 18°13' W 065°06'0 1.0
2017-Dec-12 03:30N 18°13' W 065°06'1 1.0
2017-Dec-12 03:00N 18°13' W 065°05'1 1.0
2017-Dec-12 02:30N 18°13' W 065°05'1 1.1
2017-Dec-12 02:00N 18°12' W 065°04'1 1.1
2017-Dec-12 01:29N 18°12' W 065°04'1 1.1
2017-Dec-12 01:00N 18°12' W 065°03'1 1.1
2017-Dec-12 00:29N 18°12' W 065°03'0 1.0
2017-Dec-12 00:01N 18°12' W 065°02'1 1.0
2017-Dec-11 23:30N 18°12' W 065°02'1 1.0
2017-Dec-11 23:00N 18°12' W 065°01'0 0.9
2017-Dec-11 22:31N 18°12' W 065°01'0 0.9
2017-Dec-11 22:00N 18°13' W 065°00'0 0.9
2017-Dec-11 21:30N 18°13' W 064°60'0 0.8
2017-Dec-11 20:59N 18°13' W 064°59'2 0.5
2017-Dec-11 17:06N 18°13' W 064°57'0 3.4
2017-Dec-11 17:00N 18°13' W 064°57'1 2.4
2017-Dec-11 16:30N 18°14' W 064°58'0 0.9
2017-Dec-11 16:00N 18°14' W 064°58'2 2.5
2017-Dec-11 15:13N 18°14' W 064°60'1 4.0
2017-Dec-11 14:50N 18°14' W 065°01'1 3.6
2017-Dec-11 14:30N 18°15' W 065°02'1 1.6
2017-Dec-11 14:00N 18°14' W 065°02'4 2.7
2017-Dec-11 12:25N 18°11' W 065°05'1 1.3
2017-Dec-11 11:58N 18°11' W 065°04'1 1.2
2017-Dec-11 11:30N 18°11' W 065°04'1 1.2
2017-Dec-11 11:00N 18°11' W 065°03'1 1.1
2017-Dec-11 10:30N 18°11' W 065°03'1 1.1
2017-Dec-11 10:00N 18°11' W 065°02'1 1.1
2017-Dec-11 09:30N 18°11' W 065°01'1 1.1
2017-Dec-11 09:00N 18°12' W 065°01'1 1.1
2017-Dec-11 08:30N 18°12' W 065°00'1 1.1
2017-Dec-11 08:00N 18°12' W 064°60'0 0.8
2017-Dec-11 07:30N 18°12' W 064°59'0 0.6
2017-Dec-11 06:59N 18°12' W 064°59'2 3.8
2017-Dec-11 06:31N 18°12' W 065°01'2 4.4
2017-Dec-11 06:00N 18°12' W 065°04'2 3.9
2017-Dec-11 05:30N 18°12' W 065°06'2 3.5
2017-Dec-11 04:57N 18°12' W 065°08'0 0.8
2017-Dec-11 04:22N 18°12' W 065°07'0 0.8
2017-Dec-11 03:53N 18°12' W 065°07'0 0.9
2017-Dec-11 03:30N 18°12' W 065°06'1 0.9
2017-Dec-11 02:55N 18°12' W 065°06'0 1.0
2017-Dec-11 02:28N 18°12' W 065°05'1 1.1
2017-Dec-11 01:57N 18°12' W 065°05'0 1.0
2017-Dec-11 01:29N 18°12' W 065°04'1 1.1
2017-Dec-11 00:57N 18°12' W 065°04'1 1.1
2017-Dec-11 00:28N 18°13' W 065°03'1 1.1
2017-Dec-10 23:57N 18°13' W 065°03'0 1.0
2017-Dec-10 23:30N 18°13' W 065°02'1 1.1
2017-Dec-10 22:57N 18°13' W 065°02'1 1.1
2017-Dec-10 22:29N 18°13' W 065°01'1 1.1
2017-Dec-10 22:01N 18°14' W 065°01'1 1.3
2017-Dec-10 21:30N 18°14' W 065°00'1 1.1
2017-Dec-10 20:59N 18°14' W 064°60'2 0.3
2017-Dec-10 14:49N 18°15' W 065°02'1 1.2
2017-Dec-10 14:24N 18°15' W 065°01'2 1.6
2017-Dec-10 13:03N 18°16' W 064°59'0 1.2
2017-Dec-10 12:59N 18°16' W 064°59'0 0.9
2017-Dec-10 12:30N 18°16' W 064°60'1 1.2
2017-Dec-10 11:59N 18°15' W 064°59'2 3.2
2017-Dec-10 11:15N 18°14' W 065°01'1 3.5
2017-Dec-10 11:00N 18°13' W 065°02'2 3.6
2017-Dec-10 10:30N 18°12' W 065°03'2 4.2
2017-Dec-10 10:00N 18°10' W 065°04'3 4.4
2017-Dec-10 09:23N 18°08' W 065°06'2 0.9
2017-Dec-10 07:20N 18°10' W 065°05'0 1.0
2017-Dec-10 06:56N 18°10' W 065°05'0 0.9
2017-Dec-10 06:27N 18°10' W 065°04'0 0.9
2017-Dec-10 05:59N 18°10' W 065°04'1 1.0
2017-Dec-10 05:19N 18°10' W 065°03'0 1.2
2017-Dec-10 05:00N 18°11' W 065°03'1 1.6
2017-Dec-10 04:29N 18°11' W 065°02'1 1.5
2017-Dec-10 04:00N 18°11' W 065°01'1 1.5
2017-Dec-10 03:28N 18°11' W 065°01'1 1.4
2017-Dec-10 02:51N 18°11' W 064°60'0 1.3
2017-Dec-10 02:29N 18°12' W 064°59'1 1.3
2017-Dec-10 02:00N 18°12' W 064°59'1 1.2
2017-Dec-10 01:30N 18°12' W 064°58'1 1.2
2017-Dec-10 01:00N 18°12' W 064°57'1 1.2
2017-Dec-10 00:30N 18°12' W 064°57'1 1.3
2017-Dec-10 00:00N 18°12' W 064°56'1 1.2
2017-Dec-09 23:30N 18°13' W 064°56'1 1.7
2017-Dec-09 23:00N 18°13' W 064°56'2 3.5
2017-Dec-09 22:28N 18°13' W 064°58'2 3.6
2017-Dec-09 22:01N 18°14' W 064°60'1 1.7
2017-Dec-09 21:24N 18°15' W 065°00'2 0.4
2017-Dec-09 15:43N 18°14' W 064°58'0 1.6
2017-Dec-09 15:30N 18°14' W 064°58'1 1.4
2017-Dec-09 15:00N 18°14' W 064°57'1 1.6
2017-Dec-09 14:30N 18°15' W 064°57'4 8.5
2017-Dec-09 14:00N 18°16' W 065°02'1 1.4
2017-Dec-09 13:31N 18°17' W 065°02'1 2.6
2017-Dec-09 12:59N 18°15' W 065°01'1 1.8
2017-Dec-09 12:31N 18°15' W 065°01'1 1.9
2017-Dec-09 11:57N 18°14' W 065°00'3 5.9
2017-Dec-09 11:30N 18°11' W 065°01'5 8.6
2017-Dec-09 10:58N 18°07' W 065°02'8 0.7
2017-Dec-08 22:13N 18°12' W 064°55'2 7.8
2017-Dec-08 21:54N 18°14' W 064°56'2 6.1
2017-Dec-08 21:31N 18°16' W 064°58'1 2.3
2017-Dec-08 21:00N 18°16' W 064°59'3 5.6
2017-Dec-08 20:30N 18°13' W 064°60'3 5.2
2017-Dec-08 19:58N 18°15' W 065°02'1 1.5
2017-Dec-08 19:30N 18°14' W 065°02'1 1.7
2017-Dec-08 19:00N 18°14' W 065°01'1 1.6
2017-Dec-08 18:31N 18°13' W 065°00'1 1.6
2017-Dec-08 18:00N 18°13' W 064°59'1 1.7
2017-Dec-08 17:31N 18°13' W 064°59'1 1.8
2017-Dec-08 17:00N 18°12' W 064°58'1 1.8
2017-Dec-08 16:30N 18°12' W 064°57'1 2.0
2017-Dec-08 15:58N 18°12' W 064°58'4 8.7
2017-Dec-08 15:30N 18°15' W 065°01'2 4.2
2017-Dec-08 15:00N 18°16' W 065°03'1 2.1
2017-Dec-08 14:31N 18°16' W 065°02'1 1.8
2017-Dec-08 14:01N 18°15' W 065°01'86 4.0
2017-Dec-07 16:13N 17°49' W 063°35'312.6
2017-Dec-07 15:58N 17°48' W 063°32'612.8
2017-Dec-07 15:29N 17°46' W 063°26'612.7
2017-Dec-07 14:59N 17°45' W 063°19'712.4
2017-Dec-07 14:27N 17°42' W 063°13'611.6
2017-Dec-07 13:54N 17°38' W 063°08'512.0
2017-Dec-07 13:30N 17°33' W 063°05'  
2017-Dec-04 04:59N 18°15' W 064°59'0 0.1
2017-Dec-04 04:14N 18°15' W 064°59'0 0.0
2017-Dec-04 03:53N 18°15' W 064°59'0 0.0
2017-Dec-04 03:26N 18°15' W 064°59'0 0.0
2017-Dec-04 02:56N 18°15' W 064°59'0 0.1
2017-Dec-04 02:29N 18°15' W 064°59'0 0.1
2017-Dec-04 01:59N 18°15' W 064°59'0 0.2
2017-Dec-04 01:26N 18°15' W 064°59'0 0.0
2017-Dec-04 00:17N 18°15' W 064°59'0 0.1
2017-Dec-03 23:56N 18°15' W 064°59'  

Dump ship's entire track history